Time;durP1;ratioP1;P1;durP2;ratioP2;P2;SDS_P1;SDS_P2;PMS_P1;PMS_P2;Temp;Humidity;BMP_temperature;BMP_pressure;BME280_temperature;BME280_humidity;BME280_pressure;Samples;Min_cycle;Max_cycle;Signal;HPM_P1;HPM_P2
2022/04/05 00:01:38;;;;;;;10.95;3.55;;;;;;;-1.52;56.30;98488.75;4993571;28;20049;-62
2022/04/05 00:04:03;;;;;;;10.63;3.47;;;;;;;-1.45;56.02;98505.09;5011054;28;20037;-62
2022/04/05 00:06:29;;;;;;;10.75;3.38;;;;;;;-1.55;56.44;98498.72;5008466;28;20536;-62
2022/04/05 00:08:55;;;;;;;12.02;3.65;;;;;;;-1.56;56.40;98507.63;5010922;28;20073;-64
2022/04/05 00:11:21;;;;;;;10.38;3.90;;;;;;;-1.64;57.32;98502.84;5011339;28;20033;-63
2022/04/05 00:13:46;;;;;;;12.30;3.58;;;;;;;-1.67;56.69;98504.84;5010954;28;20042;-64
2022/04/05 00:16:12;;;;;;;13.90;4.40;;;;;;;-1.66;57.34;98504.75;5010072;28;20048;-63
2022/04/05 00:18:41;;;;;;;10.68;3.58;;;;;;;-1.71;57.31;98493.63;5010509;28;20037;-63
2022/04/05 00:21:07;;;;;;;9.15;3.28;;;;;;;-1.70;57.27;98501.44;5010787;28;20053;-62
2022/04/05 00:23:33;;;;;;;12.70;3.72;;;;;;;-1.83;57.37;98473.22;5011005;28;20049;-63
2022/04/05 00:25:59;;;;;;;11.52;3.67;;;;;;;-1.71;57.31;98490.97;5011335;28;20060;-63
2022/04/05 00:28:24;;;;;;;10.82;3.72;;;;;;;-1.83;56.99;98468.81;5009605;28;20505;-63
2022/04/05 00:30:51;;;;;;;11.85;3.80;;;;;;;-1.66;57.17;98493.28;5009251;28;20057;-63
2022/04/05 00:33:17;;;;;;;12.27;3.67;;;;;;;-1.62;56.97;98486.84;5010383;28;20038;-62
2022/04/05 00:35:42;;;;;;;9.55;3.15;;;;;;;-1.56;56.80;98483.78;5010696;28;20116;-61
2022/04/05 00:38:09;;;;;;;11.75;3.35;;;;;;;-1.49;56.59;98488.56;4992967;28;20050;-63
2022/04/05 00:40:36;;;;;;;12.23;4.05;;;;;;;-1.55;55.62;98477.53;5009080;28;20049;-63
2022/04/05 00:43:05;;;;;;;8.20;2.85;;;;;;;-1.51;56.42;98477.19;5009599;28;20476;-63
2022/04/05 00:45:32;;;;;;;10.05;3.40;;;;;;;-1.46;56.38;98476.91;4992621;28;20100;-63
2022/04/05 00:47:59;;;;;;;11.43;3.78;;;;;;;-1.43;55.83;98489.91;5010391;28;20045;-62
2022/04/05 00:50:26;;;;;;;15.35;4.30;;;;;;;-1.44;55.93;98474.13;5008955;28;20085;-63
2022/04/05 00:52:51;;;;;;;10.65;3.10;;;;;;;-1.50;56.27;98460.38;5008727;28;20057;-62
2022/04/05 00:55:22;;;;;;;12.05;3.70;;;;;;;-1.42;56.33;98478.38;5008660;28;20137;-63
2022/04/05 00:57:53;;;;;;;9.68;3.10;;;;;;;-1.46;55.91;98471.59;5010058;28;20421;-64
2022/04/05 01:00:19;;;;;;;10.63;3.42;;;;;;;-1.43;55.78;98476.66;5010229;28;20096;-61
2022/04/05 01:02:48;;;;;;;12.75;4.75;;;;;;;-1.48;56.02;98473.50;5010255;28;20149;-63
2022/04/05 01:05:16;;;;;;;9.63;3.28;;;;;;;-1.58;56.49;98467.13;5010166;28;20042;-63
2022/04/05 01:07:45;;;;;;;16.42;4.15;;;;;;;-1.60;56.87;98469.03;5008755;28;20053;-63
2022/04/05 01:10:11;;;;;;;10.13;3.78;;;;;;;-1.78;56.99;98439.34;5008760;28;20094;-62
2022/04/05 01:12:37;;;;;;;12.43;4.05;;;;;;;-1.70;57.28;98464.34;5008793;28;20217;-62
2022/04/05 01:15:04;;;;;;;10.90;4.07;;;;;;;-1.68;57.38;98458.09;4992223;28;20038;-63
2022/04/05 01:17:30;;;;;;;15.02;4.45;;;;;;;-1.70;57.41;98467.00;5009901;28;20068;-63
2022/04/05 01:19:56;;;;;;;12.88;4.13;;;;;;;-1.83;57.32;98439.66;5008724;28;20076;-63
2022/04/05 01:22:21;;;;;;;16.50;4.78;;;;;;;-1.69;57.77;98459.91;5009973;28;20041;-63
2022/04/05 01:24:47;;;;;;;14.65;4.78;;;;;;;-1.89;57.24;98426.81;5008599;28;20145;-63
2022/04/05 01:27:18;;;;;;;18.02;5.22;;;;;;;-1.93;57.33;98433.28;5011041;28;20050;-63
2022/04/05 01:29:45;;;;;;;15.65;5.28;;;;;;;-1.76;57.73;98454.16;5012799;28;20053;-63
2022/04/05 01:32:11;;;;;;;13.70;4.00;;;;;;;-1.83;57.48;98452.91;4996464;28;20049;-63
2022/04/05 01:34:38;;;;;;;15.38;4.72;;;;;;;-1.91;57.90;98417.28;5012631;28;20402;-63
2022/04/05 01:37:10;;;;;;;15.13;4.85;;;;;;;-1.83;57.77;98447.63;5012237;28;20045;-62
2022/04/05 01:39:37;;;;;;;12.63;4.68;;;;;;;-1.85;57.95;98452.16;5014048;28;20041;-62
2022/04/05 01:42:09;;;;;;;11.50;4.57;;;;;;;-1.90;58.23;98451.63;5013805;28;20494;-62
2022/04/05 01:44:36;;;;;;;13.82;4.88;;;;;;;-1.94;58.19;98458.03;5013726;28;20100;-62
2022/04/05 01:47:10;;;;;;;13.38;4.15;;;;;;;-2.01;58.39;98443.53;5013530;28;20080;-63
2022/04/05 01:49:41;;;;;;;14.52;5.15;;;;;;;-2.00;58.38;98442.59;5013607;28;20045;-63
2022/04/05 01:52:09;;;;;;;12.32;4.43;;;;;;;-2.16;58.12;98415.44;5012026;28;20041;-62
2022/04/05 01:54:35;;;;;;;13.27;4.80;;;;;;;-2.00;58.52;98440.78;5011742;28;20461;-62
2022/04/05 01:57:00;;;;;;;10.95;4.25;;;;;;;-2.08;58.28;98431.66;5011888;28;20147;-63
2022/04/05 01:59:28;;;;;;;11.00;3.65;;;;;;;-1.99;58.52;98436.34;5011854;28;20061;-62
2022/04/05 02:01:55;;;;;;;11.75;3.42;;;;;;;-2.08;58.73;98426.38;4995627;28;20092;-63
2022/04/05 02:04:21;;;;;;;12.77;4.13;;;;;;;-2.03;58.84;98427.75;5011706;28;20056;-62
2022/04/05 02:06:47;;;;;;;10.10;3.75;;;;;;;-2.09;58.91;98424.66;5012087;28;20065;-62
2022/04/05 02:09:14;;;;;;;12.05;4.00;;;;;;;-2.07;59.49;98434.19;5011594;28;20177;-63
2022/04/05 02:11:46;;;;;;;11.52;3.45;;;;;;;-2.12;59.30;98427.50;5013121;28;20454;-63
2022/04/05 02:14:31;;;;;;;9.88;3.33;;;;;;;-2.24;59.64;98432.66;5011944;28;20088;-63
2022/04/05 02:17:00;;;;;;;9.38;3.08;;;;;;;-2.29;60.16;98433.94;5012161;28;20041;-61
2022/04/05 02:19:28;;;;;;;11.55;3.45;;;;;;;-2.37;60.16;98429.16;5013128;28;20116;-62
2022/04/05 02:21:55;;;;;;;8.82;3.00;;;;;;;-2.44;60.51;98419.91;4995528;28;20038;-61
2022/04/05 02:24:22;;;;;;;9.40;3.45;;;;;;;-2.47;61.09;98430.69;5011582;28;20049;-60
2022/04/05 02:26:49;;;;;;;9.45;3.40;;;;;;;-2.50;60.74;98415.00;5011560;28;20073;-63
2022/04/05 02:29:17;;;;;;;9.90;3.17;;;;;;;-2.56;61.45;98410.09;5011366;28;20041;-62
2022/04/05 02:31:47;;;;;;;8.93;2.83;;;;;;;-2.65;61.46;98408.06;4994709;28;20073;-62
2022/04/05 02:34:13;;;;;;;10.20;3.00;;;;;;;-2.75;61.39;98386.66;4994937;28;20088;-64
2022/04/05 02:36:50;;;;;;;9.45;2.60;;;;;;;-2.64;61.46;98407.13;4996686;28;20147;-61
2022/04/05 02:39:17;;;;;;;9.98;3.22;;;;;;;-2.65;61.42;98400.13;5010649;28;20100;-63
2022/04/05 02:41:47;;;;;;;11.05;2.90;;;;;;;-2.89;61.29;98363.72;5010794;28;20366;-63
2022/04/05 02:44:15;;;;;;;9.02;2.55;;;;;;;-2.69;61.67;98395.03;4978810;28;20041;-63
2022/04/05 02:46:41;;;;;;;9.35;3.17;;;;;;;-2.69;61.85;98394.19;4994913;28;20068;-62
2022/04/05 02:49:09;;;;;;;10.02;3.03;;;;;;;-2.66;61.59;98394.00;4994238;28;20042;-62
2022/04/05 02:51:35;;;;;;;9.63;3.00;;;;;;;-2.68;61.69;98399.38;5010762;28;20100;-63
2022/04/05 02:54:08;;;;;;;10.32;2.92;;;;;;;-2.68;61.65;98394.09;4995207;28;20324;-63
2022/04/05 02:56:36;;;;;;;9.07;2.83;;;;;;;-2.77;62.95;98396.50;5010707;28;20044;-63
2022/04/05 02:59:03;;;;;;;8.80;3.03;;;;;;;-2.76;62.14;98399.03;4994554;28;20050;-63
2022/04/05 03:01:29;;;;;;;8.80;3.10;;;;;;;-2.73;61.99;98396.19;5010713;28;20126;-63
2022/04/05 03:03:59;;;;;;;;;;;;;;;-2.71;61.64;98396.91;5012782;28;20053;-62
2022/04/05 03:06:25;;;;;;;11.40;2.60;;;;;;;-2.89;61.96;98369.03;4994648;28;19988;-62
2022/04/05 03:08:56;;;;;;;12.10;2.97;;;;;;;-2.82;62.65;98383.53;4994543;28;20508;-62
2022/04/05 03:11:23;;;;;;;10.90;2.63;;;;;;;-2.76;62.15;98383.16;4978901;28;20088;-63
2022/04/05 03:13:52;;;;;;;9.07;2.97;;;;;;;-2.72;62.60;98389.94;5010430;28;20068;-62
2022/04/05 03:16:18;;;;;;;11.77;3.38;;;;;;;-2.68;61.88;98380.00;4994196;28;20034;-62
2022/04/05 03:18:46;;;;;;;9.88;3.20;;;;;;;-2.68;62.22;98391.44;5010451;28;20046;-62
2022/04/05 03:21:13;;;;;;;10.52;3.42;;;;;;;-2.58;62.29;98390.84;5011540;28;20137;-63
2022/04/05 03:23:39;;;;;;;9.60;3.20;;;;;;;-2.51;62.06;98389.50;5011545;28;20046;-63
2022/04/05 03:26:05;;;;;;;11.27;3.15;;;;;;;-2.38;61.59;98395.66;4993853;28;20527;-62
2022/04/05 03:28:32;;;;;;;12.98;3.47;;;;;;;-2.35;61.48;98386.69;5009938;28;20384;-63
2022/04/05 03:30:59;;;;;;;8.65;2.78;;;;;;;-2.12;61.06;98408.97;4993461;28;20049;-63
2022/04/05 03:33:25;;;;;;;11.27;3.72;;;;;;;-2.00;60.40;98397.56;4977221;28;20156;-63
2022/04/05 03:35:55;;;;;;;10.82;3.72;;;;;;;-1.88;59.84;98401.19;4992864;28;20195;-63
2022/04/05 03:38:22;;;;;;;;;;;;;;;-1.80;59.73;98404.16;5010423;28;20054;-62
2022/04/05 03:40:49;;;;;;;12.45;3.28;;;;;;;-1.91;59.29;98364.31;5009885;28;20007;-63
2022/04/05 03:43:16;;;;;;;10.65;3.65;;;;;;;-1.63;59.30;98392.41;5009726;28;20485;-62
2022/04/05 03:45:47;;;;;;;12.65;3.67;;;;;;;-1.67;58.90;98398.88;4994457;28;20069;-62
2022/04/05 03:48:15;;;;;;;9.45;2.95;;;;;;;-1.73;59.39;98390.38;4993696;28;20061;-62
2022/04/05 03:50:43;;;;;;;9.52;3.75;;;;;;;-1.82;59.61;98400.78;5009278;28;20046;-62
2022/04/05 03:53:10;;;;;;;12.00;3.70;;;;;;;-1.97;60.45;98397.38;4993070;28;20122;-63
2022/04/05 03:55:36;;;;;;;8.70;2.90;;;;;;;-1.89;60.14;98388.91;4977019;28;20459;-64
2022/04/05 03:58:06;;;;;;;9.68;3.55;;;;;;;-1.93;60.04;98395.38;4993822;28;20056;-64
2022/04/05 04:00:33;;;;;;;11.70;3.88;;;;;;;-1.92;60.61;98389.09;5009312;28;20050;-63
2022/04/05 04:03:11;;;;;;;14.40;3.25;;;;;;;-1.92;60.45;98392.59;5001710;28;20050;-65
2022/04/05 04:05:37;;;;;;;17.10;4.57;;;;;;;-2.14;60.41;98363.25;4992692;28;20042;-64
2022/04/05 04:08:05;;;;;;;12.90;3.78;;;;;;;-1.95;60.71;98393.66;4990790;28;20520;-64
2022/04/05 04:10:34;;;;;;;9.60;3.17;;;;;;;-1.97;60.58;98394.72;4956648;28;20046;-65
2022/04/05 04:13:02;;;;;;;9.80;3.75;;;;;;;-1.98;60.89;98395.66;4973913;28;20462;-65
2022/04/05 04:15:33;;;;;;;13.18;4.22;;;;;;;-1.95;61.22;98384.84;4964901;28;20062;-67
2022/04/05 04:18:00;;;;;;;14.65;3.83;;;;;;;-1.85;60.71;98379.78;4976949;28;20502;-62
2022/04/05 04:20:26;;;;;;;11.38;3.50;;;;;;;-1.68;61.02;98391.88;5000186;28;20521;-61
2022/04/05 04:22:52;;;;;;;9.32;3.38;;;;;;;-1.61;60.26;98382.53;4989134;28;20060;-67
2022/04/05 04:25:18;;;;;;;12.90;3.95;;;;;;;-1.74;60.63;98377.25;4973675;28;20517;-63
2022/04/05 04:27:45;;;;;;;10.30;3.30;;;;;;;-1.75;60.73;98381.72;4956417;28;20470;-63
2022/04/05 04:30:11;;;;;;;11.05;4.25;;;;;;;-1.85;61.12;98383.28;4971882;28;20042;-65
2022/04/05 04:32:36;;;;;;;12.65;3.95;;;;;;;-1.87;61.10;98356.03;4972969;28;20149;-65
2022/04/05 04:35:02;;;;;;;9.68;4.13;;;;;;;-1.71;60.83;98377.06;4971925;28;20228;-65
2022/04/05 04:37:30;;;;;;;12.15;3.17;;;;;;;-1.59;60.87;98362.09;4988463;28;20054;-66
2022/04/05 04:39:56;;;;;;;12.25;3.08;;;;;;;-1.39;60.44;98385.41;4972130;28;20042;-65
2022/04/05 04:42:21;;;;;;;14.25;4.25;;;;;;;-1.23;59.93;98375.41;4956891;28;20053;-65
2022/04/05 04:44:47;;;;;;;14.73;3.63;;;;;;;-1.00;59.16;98378.22;4972922;28;20129;-67
2022/04/05 04:47:13;;;;;;;10.77;3.95;;;;;;;-0.99;59.51;98387.88;4988945;28;20078;-65
2022/04/05 04:49:39;;;;;;;11.38;4.10;;;;;;;-1.08;59.58;98364.66;4972847;28;20133;-66
2022/04/05 04:52:05;;;;;;;11.98;4.00;;;;;;;-0.95;59.51;98376.09;4961811;28;20050;-65
2022/04/05 04:54:31;;;;;;;10.73;3.67;;;;;;;-0.86;59.12;98375.41;4978009;28;20410;-65
2022/04/05 04:56:56;;;;;;;12.73;4.75;;;;;;;-0.78;59.28;98377.50;5001718;28;20062;-65
2022/04/05 04:59:22;;;;;;;11.98;4.22;;;;;;;-0.71;59.12;98372.63;4973852;28;20088;-66
2022/04/05 05:01:48;;;;;;;15.15;4.50;;;;;;;-0.78;59.27;98362.44;4955934;28;20054;-65
2022/04/05 05:04:14;;;;;;;11.65;3.65;;;;;;;-0.53;59.28;98381.88;4988725;28;20045;-65
2022/04/05 05:06:39;;;;;;;9.98;4.40;;;;;;;-0.52;58.40;98351.72;4972442;28;20148;-66
2022/04/05 05:09:05;;;;;;;14.85;4.43;;;;;;;-0.18;58.01;98381.06;4989699;28;20097;-65
2022/04/05 05:11:31;;;;;;;13.57;4.18;;;;;;;0.07;57.45;98375.56;4991576;28;20065;-64
2022/04/05 05:13:57;;;;;;;10.70;3.33;;;;;;;0.21;57.35;98371.88;5009913;28;20438;-66
2022/04/05 05:16:23;;;;;;;8.90;3.45;;;;;;;0.35;57.01;98368.16;4975480;28;20054;-65
2022/04/05 05:18:48;;;;;;;10.32;4.10;;;;;;;0.42;56.05;98374.69;4975383;28;20045;-63
2022/04/05 05:21:14;;;;;;;14.80;4.80;;;;;;;0.49;55.74;98359.97;4991618;28;20490;-65
2022/04/05 05:23:40;;;;;;;12.35;4.20;;;;;;;0.41;55.71;98338.44;5008074;28;20069;-66
2022/04/05 05:26:06;;;;;;;13.68;4.22;;;;;;;0.37;56.63;98363.59;5008056;28;20525;-65
2022/04/05 05:28:32;;;;;;;14.73;3.88;;;;;;;0.36;56.86;98369.84;5000870;28;20054;-65
2022/04/05 05:30:59;;;;;;;11.18;4.40;;;;;;;0.15;56.23;98330.69;4988354;28;20080;-64
2022/04/05 05:33:25;;;;;;;9.25;3.65;;;;;;;0.36;56.61;98364.53;4972335;28;20127;-65
2022/04/05 05:35:51;;;;;;;11.27;3.85;;;;;;;0.54;56.86;98363.09;4989700;28;20213;-65
2022/04/05 05:38:17;;;;;;;12.60;3.50;;;;;;;0.59;56.89;98349.47;4996960;28;20474;-65
2022/04/05 05:40:42;;;;;;;10.65;4.35;;;;;;;0.43;56.58;98363.09;4991576;28;20107;-65
2022/04/05 05:43:09;;;;;;;11.07;4.07;;;;;;;0.49;56.69;98354.66;5009408;28;20060;-65
2022/04/05 05:45:36;;;;;;;11.23;4.10;;;;;;;0.61;56.83;98351.00;5009240;28;20525;-65
2022/04/05 05:48:03;;;;;;;13.40;3.70;;;;;;;0.66;56.53;98326.75;5008137;28;20524;-63
2022/04/05 05:50:30;;;;;;;10.05;4.80;;;;;;;0.84;56.34;98311.09;4991381;28;20034;-65
2022/04/05 05:52:56;;;;;;;11.55;4.35;;;;;;;1.20;55.49;98339.22;4975498;28;20188;-66
2022/04/05 05:55:23;;;;;;;10.27;4.25;;;;;;;1.06;55.75;98311.09;4975592;28;20049;-65
2022/04/05 05:57:49;;;;;;;12.75;4.53;;;;;;;0.82;56.05;98323.69;4991604;28;20041;-65
2022/04/05 06:00:23;;;;;;;11.27;3.80;;;;;;;1.13;55.91;98333.56;5007859;28;20089;-65
2022/04/05 06:02:55;;;;;;;12.88;3.90;;;;;;;1.17;56.01;98335.00;4992819;28;20053;-66
2022/04/05 06:05:22;;;;;;;13.90;4.32;;;;;;;1.31;55.30;98325.03;5007745;28;20050;-66
2022/04/05 06:07:48;;;;;;;12.63;4.72;;;;;;;1.34;55.15;98330.94;4991442;28;20060;-65
2022/04/05 06:10:14;;;;;;;13.85;4.25;;;;;;;1.37;54.59;98328.03;5008638;28;20050;-64
2022/04/05 06:12:45;;;;;;;12.18;5.32;;;;;;;1.87;54.17;98330.16;4975363;28;20481;-64
2022/04/05 06:15:12;;;;;;;9.68;4.65;;;;;;;3.58;49.51;98315.09;5010427;28;20088;-65
2022/04/05 06:17:43;;;;;;;15.68;5.90;;;;;;;3.85;48.80;98321.53;5011654;28;20172;-67
2022/04/05 06:20:10;;;;;;;11.38;4.90;;;;;;;4.04;47.61;98318.84;4962453;28;20104;-66
2022/04/05 06:22:41;;;;;;;13.40;4.25;;;;;;;4.47;46.39;98314.81;5012907;28;20057;-66
2022/04/05 06:25:07;;;;;;;14.18;4.45;;;;;;;5.00;45.80;98316.81;4978721;28;20473;-66
2022/04/05 06:27:33;;;;;;;10.73;3.95;;;;;;;4.64;45.61;98313.19;5011358;28;20073;-65
2022/04/05 06:29:59;;;;;;;12.05;4.40;;;;;;;4.85;45.41;98291.53;4974605;28;20493;-66
2022/04/05 06:32:25;;;;;;;10.55;4.28;;;;;;;5.59;43.75;98311.94;4959600;28;20366;-64
2022/04/05 06:34:50;;;;;;;11.93;4.30;;;;;;;5.79;42.89;98301.91;4975640;28;20418;-65
2022/04/05 06:37:16;;;;;;;13.13;4.70;;;;;;;5.64;43.51;98303.47;4991813;28;20042;-66
2022/04/05 06:39:42;;;;;;;11.43;4.47;;;;;;;4.97;44.41;98306.44;4975544;28;20046;-66
2022/04/05 06:42:08;;;;;;;13.70;4.63;;;;;;;4.15;46.36;98303.63;4975762;28;20046;-66
2022/04/05 06:44:33;;;;;;;9.98;4.47;;;;;;;3.84;47.06;98301.16;4991486;28;20141;-65
2022/04/05 06:46:59;;;;;;;12.05;4.53;;;;;;;3.89;47.51;98304.22;4959117;28;20113;-67
2022/04/05 06:49:25;;;;;;;11.90;4.05;;;;;;;3.74;47.99;98298.47;4975324;28;20483;-65
2022/04/05 06:51:51;;;;;;;11.50;3.83;;;;;;;3.55;48.25;98296.66;4959152;28;20483;-66
2022/04/05 06:54:17;;;;;;;13.45;5.18;;;;;;;3.37;48.84;98306.34;4959014;28;20042;-65
2022/04/05 06:56:42;;;;;;;13.32;5.25;;;;;;;3.22;49.10;98300.56;4958674;28;20122;-66
2022/04/05 06:59:08;;;;;;;10.85;4.50;;;;;;;3.30;49.02;98302.53;4959429;28;20046;-66
2022/04/05 07:01:35;;;;;;;11.02;4.00;;;;;;;3.29;48.75;98290.13;4975524;28;20631;-65
2022/04/05 07:04:01;;;;;;;11.82;4.65;;;;;;;3.41;48.19;98283.72;4991562;28;20109;-66
2022/04/05 07:06:26;;;;;;;10.13;4.22;;;;;;;3.68;48.21;98279.47;4987550;28;20062;-65
2022/04/05 07:08:53;;;;;;;14.45;4.60;;;;;;;3.98;47.70;98268.59;4975339;28;20042;-65
2022/04/05 07:11:19;;;;;;;13.45;4.82;;;;;;;4.29;46.82;98284.44;4991030;28;20050;-66
2022/04/05 07:13:45;;;;;;;15.60;4.28;;;;;;;4.18;46.69;98276.59;4990561;28;20045;-65
2022/04/05 07:16:11;;;;;;;11.15;4.30;;;;;;;4.82;45.85;98281.13;4992492;28;20127;-66
2022/04/05 07:18:36;;;;;;;11.48;4.20;;;;;;;4.60;45.09;98288.53;4990989;28;20046;-67
2022/04/05 07:21:02;;;;;;;14.30;4.97;;;;;;;5.03;44.86;98295.09;4942782;28;20053;-66
2022/04/05 07:23:28;;;;;;;10.00;3.97;;;;;;;4.57;44.79;98267.44;4974706;28;20518;-65
2022/04/05 07:25:54;;;;;;;13.38;4.97;;;;;;;4.78;44.92;98269.88;4990520;28;20049;-66
2022/04/05 07:28:20;;;;;;;9.73;4.70;;;;;;;4.71;44.76;98255.38;4974616;28;20082;-65
2022/04/05 07:30:45;;;;;;;10.90;4.53;;;;;;;4.62;44.72;98276.88;4991501;28;20050;-65
2022/04/05 07:33:11;;;;;;;10.73;4.57;;;;;;;4.19;45.80;98248.84;4990450;28;20120;-66
2022/04/05 07:35:37;;;;;;;10.55;4.32;;;;;;;5.03;44.73;98268.31;4974254;28;20375;-66
2022/04/05 07:38:03;;;;;;;10.55;4.53;;;;;;;5.11;44.38;98270.25;4990014;28;20049;-65
2022/04/05 07:40:47;;;;;;;11.50;5.03;;;;;;;5.24;44.22;98265.38;4991782;28;20042;-65
2022/04/05 07:43:22;;;;;;;11.55;5.00;;;;;;;5.14;44.30;98266.44;4973932;28;20152;-65
2022/04/05 07:45:49;;;;;;;15.05;5.47;;;;;;;6.14;42.47;98257.28;4974191;28;20050;-65
2022/04/05 07:48:20;;;;;;;11.50;6.32;;;;;;;6.66;40.44;98263.47;4990288;28;20047;-66
2022/04/05 07:50:47;;;;;;;10.38;5.32;;;;;;;7.44;38.39;98247.06;4991660;28;20043;-66
2022/04/05 07:53:13;;;;;;;10.88;5.28;;;;;;;8.53;36.71;98247.69;4989943;28;20135;-66
2022/04/05 07:55:39;;;;;;;12.50;4.63;;;;;;;8.71;36.50;98251.00;4991666;28;20073;-64
2022/04/05 07:58:05;;;;;;;8.98;4.97;;;;;;;7.95;37.03;98255.00;4974069;28;20100;-65
2022/04/05 08:00:31;;;;;;;10.63;5.28;;;;;;;7.87;37.05;98258.53;4973890;28;20049;-66
2022/04/05 08:02:57;;;;;;;10.75;5.00;;;;;;;8.71;35.55;98252.88;4973613;28;20054;-66
2022/04/05 08:05:26;;;;;;;10.70;4.32;;;;;;;8.09;36.27;98240.84;4989718;28;20050;-65
2022/04/05 08:07:52;;;;;;;14.32;5.15;;;;;;;7.14;38.10;98261.13;4974027;28;20057;-66
2022/04/05 08:10:18;;;;;;;12.40;6.20;;;;;;;6.87;38.18;98254.97;4973634;28;20521;-64
2022/04/05 08:12:46;;;;;;;12.55;5.38;;;;;;;7.08;37.54;98253.72;4973966;28;20108;-66
2022/04/05 08:15:13;;;;;;;11.63;4.70;;;;;;;6.90;38.21;98246.59;4989770;28;20034;-66
2022/04/05 08:17:39;;;;;;;10.73;4.93;;;;;;;6.98;37.88;98230.53;4989958;28;20054;-65
2022/04/05 08:20:06;;;;;;;9.63;5.03;;;;;;;6.91;38.55;98250.13;4989894;28;20515;-66
2022/04/05 08:22:32;;;;;;;12.60;5.65;;;;;;;6.47;38.43;98248.44;4988839;28;20141;-66
2022/04/05 08:24:58;;;;;;;14.63;5.03;;;;;;;7.17;38.09;98228.56;4973775;28;20054;-64
2022/04/05 08:27:23;;;;;;;11.27;4.57;;;;;;;7.36;37.38;98239.00;4973639;28;20395;-67
2022/04/05 08:29:49;;;;;;;9.88;4.53;;;;;;;8.68;35.47;98219.03;4973497;28;20063;-66
2022/04/05 08:32:15;;;;;;;9.73;5.20;;;;;;;9.22;34.77;98215.56;4973533;28;20101;-66
2022/04/05 08:34:42;;;;;;;11.45;5.28;;;;;;;8.79;33.92;98221.34;4974020;28;20128;-65
2022/04/05 08:37:08;;;;;;;11.50;5.53;;;;;;;9.11;34.02;98224.91;4989171;28;20518;-66
2022/04/05 08:39:35;;;;;;;10.88;5.15;;;;;;;8.71;34.64;98220.53;4990862;28;20058;-66
2022/04/05 08:42:05;;;;;;;11.07;5.68;;;;;;;7.78;36.20;98227.25;4992941;28;20132;-65
2022/04/05 08:44:32;;;;;;;13.07;5.07;;;;;;;7.96;36.07;98238.66;4960449;28;20056;-65
2022/04/05 08:47:02;;;;;;;10.43;5.20;;;;;;;8.02;35.46;98207.56;4976192;28;20602;-65
2022/04/05 08:49:28;;;;;;;10.93;4.72;;;;;;;8.92;34.55;98204.59;4992074;28;20038;-66
2022/04/05 08:51:54;;;;;;;11.52;5.35;;;;;;;8.59;35.02;98198.50;5008499;28;20045;-66
2022/04/05 08:54:20;;;;;;;10.73;5.30;;;;;;;8.78;33.80;98208.88;4992857;28;20446;-65
2022/04/05 08:56:47;;;;;;;9.27;3.63;;;;;;;7.79;35.53;98198.50;4992466;28;20429;-65
2022/04/05 08:59:14;;;;;;;10.23;4.40;;;;;;;7.28;36.58;98204.03;4992403;28;20135;-66
2022/04/05 09:01:40;;;;;;;11.80;4.03;;;;;;;6.73;37.75;98200.06;5008917;28;20050;-66
2022/04/05 09:04:06;;;;;;;9.65;3.95;;;;;;;6.63;38.62;98199.34;4976181;28;20343;-65
2022/04/05 09:06:34;;;;;;;10.70;3.97;;;;;;;6.45;38.40;98207.47;4976162;28;20588;-66
2022/04/05 09:09:16;;;;;;;9.25;4.00;;;;;;;6.00;38.67;98192.50;4976555;28;20145;-65
2022/04/05 09:11:52;;;;;;;12.77;4.50;;;;;;;7.48;35.04;98205.38;4992007;28;20053;-66
2022/04/05 09:14:27;;;;;;;8.30;3.17;;;;;;;7.16;34.30;98202.66;5008007;28;20054;-66
2022/04/05 09:17:13;;;;;;;8.05;3.70;;;;;;;7.72;33.68;98203.72;4992279;28;20037;-66
2022/04/05 09:19:46;;;;;;;8.68;3.42;;;;;;;8.17;33.56;98188.84;5008414;28;20050;-65
2022/04/05 09:22:12;;;;;;;7.75;3.88;;;;;;;8.29;33.61;98192.84;4992062;28;20151;-66
2022/04/05 09:24:40;;;;;;;8.38;3.20;;;;;;;8.00;33.57;98187.19;4975961;28;20046;-65
2022/04/05 09:27:06;;;;;;;9.55;3.70;;;;;;;7.30;34.15;98183.19;5008641;28;20145;-65
2022/04/05 09:29:44;;;;;;;8.27;3.30;;;;;;;6.83;35.37;98167.66;4976270;28;20080;-65
2022/04/05 09:32:11;;;;;;;9.68;3.75;;;;;;;7.44;34.52;98187.91;4976115;28;20042;-63
2022/04/05 09:34:50;;;;;;;9.88;3.70;;;;;;;8.18;33.66;98163.59;4976337;28;20057;-66
2022/04/05 09:37:24;;;;;;;8.18;3.70;;;;;;;8.23;33.05;98177.41;5008545;28;20054;-66
2022/04/05 09:39:49;;;;;;;9.32;3.83;;;;;;;7.50;34.12;98172.97;4991832;28;20048;-66
2022/04/05 09:42:15;;;;;;;9.15;3.75;;;;;;;7.04;34.40;98175.28;4991983;28;20049;-66
2022/04/05 09:44:43;;;;;;;8.48;3.38;;;;;;;7.25;34.96;98167.59;5007964;28;20144;-65
2022/04/05 09:47:19;;;;;;;9.80;3.58;;;;;;;7.28;34.38;98171.78;4991438;28;20054;-65
2022/04/05 09:49:47;;;;;;;8.40;3.78;;;;;;;7.39;34.12;98155.31;4995684;28;20052;-65
2022/04/05 09:52:30;;;;;;;11.52;3.95;;;;;;;7.53;34.27;98139.50;5011759;28;20094;-66
2022/04/05 09:55:10;;;;;;;8.10;3.67;;;;;;;7.43;34.66;98147.78;4995975;28;20236;-65
2022/04/05 09:57:37;;;;;;;11.35;3.72;;;;;;;6.90;35.45;98149.88;5012566;28;20120;-65
2022/04/05 10:00:08;;;;;;;12.60;4.07;;;;;;;6.97;36.08;98153.59;4995659;28;20046;-66
2022/04/05 10:03:01;;;;;;;8.95;3.95;;;;;;;7.51;34.86;98163.06;5013019;28;20052;-65
2022/04/05 10:05:32;;;;;;;10.85;3.33;;;;;;;7.58;35.12;98139.84;4995378;28;20363;-65
2022/04/05 10:07:59;;;;;;;12.93;4.13;;;;;;;8.21;34.04;98155.19;4995637;28;20046;-66
2022/04/05 10:10:25;;;;;;;10.10;3.92;;;;;;;7.31;35.22;98152.63;4995317;28;20056;-65
2022/04/05 10:12:51;;;;;;;9.07;3.28;;;;;;;6.98;36.33;98136.50;4995407;28;20045;-66
2022/04/05 10:15:18;;;;;;;9.77;4.05;;;;;;;6.39;37.38;98151.75;4963277;28;20049;-66
2022/04/05 10:17:45;;;;;;;10.05;3.90;;;;;;;6.73;36.93;98140.13;5011915;28;20045;-65
2022/04/05 10:20:12;;;;;;;8.05;3.08;;;;;;;6.36;37.76;98127.94;4995615;28;20100;-65
2022/04/05 10:22:40;;;;;;;9.63;4.22;;;;;;;6.66;37.41;98133.75;4995044;28;20060;-64
2022/04/05 10:25:07;;;;;;;12.13;3.95;;;;;;;6.24;38.06;98139.94;4978786;28;20561;-66
2022/04/05 10:27:33;;;;;;;8.18;3.72;;;;;;;5.92;38.84;98141.47;4994928;28;20501;-65
2022/04/05 10:30:15;;;;;;;10.65;3.60;;;;;;;6.03;38.74;98133.16;5011572;28;20042;-65
2022/04/05 10:32:48;;;;;;;8.25;3.53;;;;;;;6.04;38.40;98120.59;4994837;28;20477;-64
2022/04/05 10:35:14;;;;;;;8.25;3.25;;;;;;;6.45;38.10;98137.69;4978388;28;20387;-65
2022/04/05 10:37:41;;;;;;;10.50;4.00;;;;;;;7.02;37.40;98131.63;4978621;28;20044;-66
2022/04/05 10:40:10;;;;;;;9.27;3.63;;;;;;;7.62;36.81;98119.69;5012255;28;20516;-66
2022/04/05 10:42:40;;;;;;;9.75;3.78;;;;;;;7.38;36.28;98129.44;4994920;28;20069;-64
2022/04/05 10:45:11;;;;;;;9.63;3.92;;;;;;;7.34;35.46;98116.50;4978360;28;20057;-67
2022/04/05 10:47:57;;;;;;;9.23;3.78;;;;;;;7.76;35.19;98135.13;5010709;28;20042;-66
2022/04/05 10:50:23;;;;;;;8.85;3.40;;;;;;;7.88;35.06;98098.78;5010630;28;20061;-65
2022/04/05 10:53:34;;;;;;;9.70;4.22;;;;;;;8.24;34.17;98114.47;4994596;28;20042;-66
2022/04/05 10:56:03;;;;;;;8.23;3.35;;;;;;;7.39;34.84;98098.88;5002721;28;20050;-65
2022/04/05 10:58:30;;;;;;;10.95;3.15;;;;;;;7.22;35.82;98118.69;4994437;28;20155;-66
2022/04/05 11:01:39;;;;;;;9.05;3.17;;;;;;;6.65;36.95;98111.38;4993586;28;20507;-65
2022/04/05 11:04:18;;;;;;;9.60;3.13;;;;;;;6.20;37.95;98111.75;4973575;28;20400;-65
2022/04/05 11:07:00;;;;;;;9.43;3.60;;;;;;;6.22;37.93;98125.88;5007757;28;20061;-65
2022/04/05 11:09:33;;;;;;;8.75;3.45;;;;;;;6.55;37.22;98109.88;4994278;28;20046;-65
2022/04/05 11:12:04;;;;;;;9.13;3.53;;;;;;;6.41;37.77;98109.50;4978339;28;20505;-65
2022/04/05 11:14:45;;;;;;;9.00;3.85;;;;;;;6.28;37.52;98114.47;4977961;28;20524;-65
2022/04/05 11:17:15;;;;;;;8.82;3.15;;;;;;;6.20;38.11;98106.41;4978421;28;20047;-64
2022/04/05 11:19:44;;;;;;;9.15;3.40;;;;;;;6.28;38.05;98103.72;5010233;28;20418;-65
2022/04/05 11:22:19;;;;;;;10.98;3.35;;;;;;;6.08;38.47;98102.31;5011774;28;20045;-65
2022/04/05 11:24:53;;;;;;;9.80;4.03;;;;;;;6.19;38.38;98116.28;5010484;28;20106;-67
2022/04/05 11:27:52;;;;;;;12.93;3.90;;;;;;;5.89;38.57;98114.94;5010304;28;20080;-65
2022/04/05 11:30:27;;;;;;;10.05;3.78;;;;;;;5.81;39.34;98090.75;4977859;28;20069;-65
2022/04/05 11:33:12;;;;;;;8.23;3.58;;;;;;;5.33;39.94;98089.44;4993769;28;20140;-65
2022/04/05 11:35:47;;;;;;;9.07;3.70;;;;;;;5.25;40.69;98084.03;4961347;28;20046;-65
2022/04/05 11:38:26;;;;;;;9.15;3.67;;;;;;;5.00;40.33;98099.91;5010135;28;20068;-65